createdAt,value
2019-02-06T00:01:40.701Z,3.10
2019-02-06T00:04:09.290Z,3.40
2019-02-06T00:06:37.900Z,3.03
2019-02-06T00:09:10.684Z,3.03
2019-02-06T00:11:39.277Z,2.93
2019-02-06T00:14:07.956Z,3.40
2019-02-06T00:16:36.464Z,2.60
2019-02-06T00:19:05.262Z,2.80
2019-02-06T00:21:33.791Z,2.93
2019-02-06T00:24:02.317Z,3.20
2019-02-06T00:26:30.769Z,2.80
2019-02-06T00:28:59.254Z,3.20
2019-02-06T00:31:27.942Z,3.33
2019-02-06T00:33:56.478Z,2.07
2019-02-06T00:36:24.937Z,2.03
2019-02-06T00:38:53.937Z,2.53
2019-02-06T00:41:22.398Z,3.47
2019-02-06T00:43:50.915Z,2.63
2019-02-06T00:46:19.385Z,2.63
2019-02-06T00:48:48.083Z,2.57
2019-02-06T00:51:16.605Z,2.90
2019-02-06T00:53:45.341Z,2.50
2019-02-06T00:56:13.790Z,2.80
2019-02-06T00:58:42.246Z,2.57
2019-02-06T01:01:10.845Z,2.67
2019-02-06T01:03:39.603Z,2.53
2019-02-06T01:06:08.477Z,2.40
2019-02-06T01:08:37.150Z,3.17
2019-02-06T01:11:05.943Z,2.40
2019-02-06T01:13:34.582Z,2.00
2019-02-06T01:16:03.198Z,1.80
2019-02-06T01:18:31.807Z,1.73
2019-02-06T01:21:00.323Z,2.17
2019-02-06T01:23:28.857Z,1.87
2019-02-06T01:25:57.443Z,1.90
2019-02-06T01:28:25.978Z,1.90
2019-02-06T01:30:56.058Z,1.60
2019-02-06T01:33:24.595Z,2.10
2019-02-06T01:35:53.120Z,1.70
2019-02-06T01:38:21.653Z,2.30
2019-02-06T01:40:50.178Z,2.10
2019-02-06T01:43:19.102Z,1.50
2019-02-06T01:45:47.559Z,1.77
2019-02-06T01:48:16.153Z,1.80
2019-02-06T01:50:44.606Z,2.00
2019-02-06T01:53:13.066Z,2.13
2019-02-06T01:55:41.518Z,1.77
2019-02-06T01:58:10.121Z,1.80
2019-02-06T02:00:39.186Z,1.43
2019-02-06T02:03:07.782Z,1.90
2019-02-06T02:05:37.998Z,1.90
2019-02-06T02:08:06.771Z,1.80
2019-02-06T02:10:35.365Z,1.70
2019-02-06T02:13:03.964Z,1.63
2019-02-06T02:15:32.486Z,1.53
2019-02-06T02:18:00.950Z,1.80
2019-02-06T02:20:29.538Z,1.90
2019-02-06T02:22:57.985Z,1.80
2019-02-06T02:25:26.454Z,1.70
2019-02-06T02:27:54.898Z,1.30
2019-02-06T02:30:38.528Z,1.93
2019-02-06T02:33:06.979Z,1.70
2019-02-06T02:35:35.455Z,1.70
2019-02-06T02:38:04.071Z,1.33
2019-02-06T02:40:32.606Z,1.63
2019-02-06T02:43:01.148Z,1.10
2019-02-06T02:45:34.404Z,2.43
2019-02-06T02:48:02.866Z,1.63
2019-02-06T02:50:31.452Z,1.63
2019-02-06T02:53:00.019Z,2.33
2019-02-06T02:55:28.490Z,1.60
2019-02-06T02:57:56.955Z,1.53
2019-02-06T03:00:30.384Z,1.27
2019-02-06T03:03:00.624Z,1.87
2019-02-06T03:05:30.768Z,1.77
2019-02-06T03:07:59.396Z,1.83
2019-02-06T03:10:28.003Z,1.47
2019-02-06T03:12:56.519Z,1.77
2019-02-06T03:15:25.134Z,2.47
2019-02-06T03:17:53.676Z,1.40
2019-02-06T03:20:22.269Z,1.53
2019-02-06T03:22:50.873Z,1.77
2019-02-06T03:25:19.428Z,1.67
2019-02-06T03:27:47.955Z,1.80
2019-02-06T03:30:20.075Z,1.90
2019-02-06T03:32:48.637Z,1.63
2019-02-06T03:35:17.338Z,1.50
2019-02-06T03:37:45.849Z,1.10
2019-02-06T03:40:17.369Z,2.00
2019-02-06T03:42:45.974Z,1.57
2019-02-06T03:45:15.117Z,1.50
2019-02-06T03:47:43.610Z,1.60
2019-02-06T03:50:17.719Z,1.20
2019-02-06T03:52:46.312Z,1.30
2019-02-06T03:55:15.618Z,1.73
2019-02-06T03:57:44.284Z,1.87
2019-02-06T04:00:15.851Z,1.93
2019-02-06T04:02:44.589Z,2.10
2019-02-06T04:05:13.719Z,1.50
2019-02-06T04:07:42.278Z,1.60
2019-02-06T04:10:18.271Z,1.67
2019-02-06T04:12:46.949Z,1.80
2019-02-06T04:15:15.944Z,1.47
2019-02-06T04:17:44.518Z,1.40
2019-02-06T04:20:14.595Z,1.10
2019-02-06T04:22:43.046Z,2.00
2019-02-06T04:25:14.176Z,1.70
2019-02-06T04:27:42.671Z,1.50
2019-02-06T04:30:18.717Z,1.47
2019-02-06T04:32:47.678Z,1.50
2019-02-06T04:35:16.860Z,1.70
2019-02-06T04:37:45.378Z,1.60
2019-02-06T04:40:18.739Z,1.47
2019-02-06T04:42:47.727Z,2.30
2019-02-06T04:45:20.025Z,2.40
2019-02-06T04:47:48.602Z,1.87
2019-02-06T04:50:18.517Z,2.40
2019-02-06T04:52:47.064Z,2.07
2019-02-06T04:55:17.246Z,1.67
2019-02-06T04:57:46.410Z,1.50
2019-02-06T05:00:26.119Z,1.77
2019-02-06T05:02:54.777Z,1.60
2019-02-06T05:05:23.322Z,1.37
2019-02-06T05:07:51.895Z,1.53
2019-02-06T05:10:20.441Z,1.73
2019-02-06T05:12:49.157Z,1.80
2019-02-06T05:15:18.231Z,1.80
2019-02-06T05:17:46.839Z,1.40
2019-02-06T05:20:23.953Z,2.13
2019-02-06T05:22:52.471Z,1.80
2019-02-06T05:25:21.013Z,1.43
2019-02-06T05:27:49.531Z,1.70
2019-02-06T05:30:18.126Z,1.83
2019-02-06T05:32:46.591Z,1.67
2019-02-06T05:35:15.263Z,1.47
2019-02-06T05:37:43.904Z,1.60
2019-02-06T05:40:12.734Z,1.47
2019-02-06T05:42:41.748Z,2.20
2019-02-06T05:45:12.177Z,2.03
2019-02-06T05:47:40.714Z,1.50
2019-02-06T05:50:12.354Z,1.87
2019-02-06T05:52:40.895Z,1.50
2019-02-06T05:55:09.576Z,1.40
2019-02-06T05:57:38.095Z,1.30
2019-02-06T06:00:12.866Z,1.70
2019-02-06T06:02:41.454Z,1.73
2019-02-06T06:05:10.066Z,1.80
2019-02-06T06:07:45.271Z,1.60
2019-02-06T06:10:11.874Z,1.23
2019-02-06T06:12:40.327Z,1.80
2019-02-06T06:15:10.610Z,1.47
2019-02-06T06:17:39.093Z,1.63
2019-02-06T06:20:10.578Z,1.73
2019-02-06T06:22:39.113Z,1.33
2019-02-06T06:25:10.689Z,1.57
2019-02-06T06:27:39.282Z,1.80
2019-02-06T06:30:10.820Z,2.07
2019-02-06T06:32:39.422Z,1.90
2019-02-06T06:35:10.803Z,1.70
2019-02-06T06:37:41.571Z,1.93
2019-02-06T06:40:13.614Z,2.00
2019-02-06T06:42:42.613Z,1.50
2019-02-06T06:45:14.088Z,2.03
2019-02-06T06:47:42.606Z,2.00
2019-02-06T06:50:14.208Z,1.93
2019-02-06T06:52:42.820Z,1.83
2019-02-06T06:55:13.509Z,2.03
2019-02-06T06:57:42.330Z,2.57
2019-02-06T07:00:16.939Z,2.30
2019-02-06T07:02:45.585Z,1.43
2019-02-06T07:05:15.790Z,1.90
2019-02-06T07:07:44.394Z,1.53
2019-02-06T07:10:15.068Z,1.97
2019-02-06T07:12:43.966Z,2.57
2019-02-06T07:15:15.589Z,1.63
2019-02-06T07:17:44.056Z,2.70
2019-02-06T07:20:15.313Z,1.63
2019-02-06T07:22:43.838Z,1.70
2019-02-06T07:25:14.942Z,2.30
2019-02-06T07:27:43.451Z,2.87
2019-02-06T07:30:26.666Z,2.60
2019-02-06T07:32:55.113Z,2.00
2019-02-06T07:35:23.639Z,1.80
2019-02-06T07:37:52.162Z,2.20
2019-02-06T07:40:20.775Z,2.17
2019-02-06T07:42:49.361Z,2.50
2019-02-06T07:45:19.549Z,2.70
2019-02-06T07:47:48.209Z,2.20
2019-02-06T07:50:19.733Z,2.73
2019-02-06T07:52:48.278Z,2.63
2019-02-06T07:55:17.238Z,2.60
2019-02-06T07:57:45.898Z,2.90
2019-02-06T08:00:14.422Z,3.00
2019-02-06T08:02:42.942Z,3.77
2019-02-06T08:05:14.682Z,3.67
2019-02-06T08:07:43.219Z,3.27
2019-02-06T08:10:21.174Z,3.70
2019-02-06T08:12:49.882Z,3.73
2019-02-06T08:15:19.087Z,4.63
2019-02-06T08:17:47.790Z,4.20
2019-02-06T08:20:19.214Z,3.10
2019-02-06T08:22:47.981Z,3.33
2019-02-06T08:25:21.297Z,3.33
2019-02-06T08:27:49.757Z,3.60
2019-02-06T08:30:29.707Z,3.00
2019-02-06T08:32:58.313Z,3.37
2019-02-06T08:35:26.980Z,3.50
2019-02-06T08:37:55.528Z,3.50
2019-02-06T08:40:26.693Z,4.20
2019-02-06T08:42:55.214Z,4.60
2019-02-06T08:45:24.283Z,4.10
2019-02-06T08:47:52.889Z,4.40
2019-02-06T08:50:22.955Z,4.20
2019-02-06T08:52:51.630Z,3.90
2019-02-06T08:55:22.431Z,3.60
2019-02-06T08:57:51.115Z,3.40
2019-02-06T09:00:28.132Z,4.37
2019-02-06T09:02:56.693Z,2.90
2019-02-06T09:05:25.755Z,3.67
2019-02-06T09:07:54.463Z,3.00
2019-02-06T09:10:25.220Z,3.17
2019-02-06T09:12:54.873Z,2.43
2019-02-06T09:15:26.791Z,2.70
2019-02-06T09:17:54.085Z,2.63
2019-02-06T09:20:24.649Z,1.80
2019-02-06T09:22:53.315Z,1.60
2019-02-06T09:25:24.166Z,2.60
2019-02-06T09:27:52.757Z,3.80
2019-02-06T09:30:25.923Z,3.00
2019-02-06T09:32:55.201Z,2.60
2019-02-06T09:35:24.389Z,3.00
2019-02-06T09:37:52.980Z,3.00
2019-02-06T09:40:24.048Z,2.90
2019-02-06T09:42:52.633Z,3.40
2019-02-06T09:45:21.303Z,3.20
2019-02-06T09:47:49.737Z,2.67
2019-02-06T09:50:21.322Z,2.30
2019-02-06T09:52:49.830Z,2.40
2019-02-06T09:55:18.508Z,1.80
2019-02-06T09:57:46.942Z,2.10
2019-02-06T10:00:18.722Z,2.10
2019-02-06T10:02:47.241Z,2.20
2019-02-06T10:05:16.018Z,1.80
2019-02-06T10:07:46.242Z,1.83
2019-02-06T10:10:17.493Z,2.40
2019-02-06T10:12:46.015Z,3.20
2019-02-06T10:15:29.302Z,2.37
2019-02-06T10:17:58.370Z,2.33
2019-02-06T10:20:32.837Z,1.97
2019-02-06T10:23:01.946Z,1.83
2019-02-06T10:25:31.249Z,1.73
2019-02-06T10:27:59.806Z,1.97
2019-02-06T10:30:31.338Z,2.60
2019-02-06T10:33:00.386Z,2.50
2019-02-06T10:35:29.013Z,2.57
2019-02-06T10:37:57.606Z,2.20
2019-02-06T10:40:26.600Z,2.53
2019-02-06T10:42:55.213Z,3.30
2019-02-06T10:45:23.909Z,3.30
2019-02-06T10:47:52.744Z,3.50
2019-02-06T10:50:26.982Z,3.57
2019-02-06T10:52:55.577Z,3.30
2019-02-06T10:55:24.158Z,3.27
2019-02-06T10:57:52.691Z,3.27
2019-02-06T11:00:24.525Z,2.70
2019-02-06T11:02:53.502Z,3.10
2019-02-06T11:05:22.085Z,3.07
2019-02-06T11:07:51.070Z,2.87
2019-02-06T11:10:24.442Z,3.27
2019-02-06T11:12:53.021Z,2.70
2019-02-06T11:15:21.895Z,4.13
2019-02-06T11:17:51.195Z,3.30
2019-02-06T11:20:25.449Z,2.90
2019-02-06T11:22:54.216Z,3.00
2019-02-06T11:25:22.867Z,3.00
2019-02-06T11:27:51.534Z,2.83
2019-02-06T11:30:23.114Z,3.37
2019-02-06T11:32:51.847Z,3.07
2019-02-06T11:35:20.534Z,3.47
2019-02-06T11:37:49.128Z,3.10
2019-02-06T11:40:20.002Z,3.33
2019-02-06T11:42:48.858Z,3.13
2019-02-06T11:45:20.402Z,2.93
2019-02-06T11:47:49.183Z,2.80
2019-02-06T11:50:21.517Z,3.07
2019-02-06T11:52:50.770Z,3.30
2019-02-06T11:55:25.127Z,3.73
2019-02-06T11:57:53.630Z,3.50
2019-02-06T12:00:25.330Z,2.73
2019-02-06T12:02:53.856Z,3.03
2019-02-06T12:05:22.370Z,3.17
2019-02-06T12:07:50.962Z,4.20
2019-02-06T12:10:21.083Z,3.57
2019-02-06T12:12:49.777Z,3.27
2019-02-06T12:15:21.340Z,3.03
2019-02-06T12:17:49.991Z,2.73
2019-02-06T12:20:21.151Z,2.30
2019-02-06T12:22:49.734Z,3.03
2019-02-06T12:25:19.098Z,2.90
2019-02-06T12:27:50.141Z,2.90
2019-02-06T12:30:21.706Z,2.93
2019-02-06T12:32:52.380Z,3.57
2019-02-06T12:35:20.455Z,3.63
2019-02-06T12:37:49.044Z,3.47
2019-02-06T12:40:21.655Z,3.20
2019-02-06T12:42:48.419Z,3.03
2019-02-06T12:45:19.235Z,3.03
2019-02-06T12:47:47.832Z,3.53
2019-02-06T12:50:21.308Z,2.90
2019-02-06T12:52:49.904Z,3.60
2019-02-06T12:55:26.781Z,2.60
2019-02-06T12:57:55.359Z,2.93
2019-02-06T13:00:29.161Z,2.90
2019-02-06T13:03:00.069Z,2.90
2019-02-06T13:05:28.931Z,4.10
2019-02-06T13:07:57.507Z,3.40
2019-02-06T13:10:33.488Z,2.70
2019-02-06T13:12:56.193Z,3.57
2019-02-06T13:15:24.640Z,2.73
2019-02-06T13:17:53.632Z,3.00
2019-02-06T13:20:27.630Z,2.80
2019-02-06T13:22:56.289Z,3.90
2019-02-06T13:25:24.793Z,2.97
2019-02-06T13:27:53.310Z,3.03
2019-02-06T13:30:24.918Z,3.27
2019-02-06T13:32:53.426Z,3.30
2019-02-06T13:35:22.022Z,3.40
2019-02-06T13:37:50.537Z,3.27
2019-02-06T13:40:22.054Z,3.50
2019-02-06T13:42:50.655Z,3.73
2019-02-06T13:45:27.665Z,3.90
2019-02-06T13:47:56.318Z,3.47
2019-02-06T13:50:26.002Z,3.73
2019-02-06T13:52:54.526Z,4.47
2019-02-06T13:55:23.108Z,3.67
2019-02-06T13:57:51.618Z,4.73
2019-02-06T14:00:25.902Z,5.70
2019-02-06T14:02:54.427Z,5.23
2019-02-06T14:05:25.778Z,6.43
2019-02-06T14:07:56.379Z,5.00
2019-02-06T14:10:29.781Z,3.97
2019-02-06T14:12:59.026Z,4.67
2019-02-06T14:15:33.582Z,4.00
2019-02-06T14:18:02.165Z,5.10
2019-02-06T14:20:30.953Z,5.70
2019-02-06T14:23:02.823Z,5.23
2019-02-06T14:25:37.903Z,5.17
2019-02-06T14:28:25.048Z,4.80
2019-02-06T14:31:16.254Z,5.30
2019-02-06T14:33:53.671Z,5.63
2019-02-06T14:37:00.442Z,5.60
2019-02-06T14:39:47.496Z,5.43
2019-02-06T14:42:45.232Z,5.00
2019-02-06T14:45:33.362Z,6.73
2019-02-06T14:48:14.088Z,6.23
2019-02-06T14:50:45.690Z,6.00
2019-02-06T14:53:19.866Z,7.07
2019-02-06T14:55:51.394Z,7.07
2019-02-06T14:58:40.322Z,6.93
2019-02-06T15:01:35.674Z,7.67
2019-02-06T15:04:19.436Z,6.70
2019-02-06T15:06:53.736Z,6.70
2019-02-06T15:09:37.330Z,6.00
2019-02-06T15:12:17.786Z,6.23
2019-02-06T15:14:52.054Z,7.50
2019-02-06T15:17:38.409Z,6.00
2019-02-06T15:20:24.934Z,6.30
2019-02-06T15:23:08.470Z,7.07
2019-02-06T15:26:04.026Z,6.30
2019-02-06T15:28:41.554Z,5.93
2019-02-06T15:31:21.810Z,6.70
2019-02-06T15:34:22.108Z,6.90
2019-02-06T15:37:17.620Z,7.20
2019-02-06T15:40:08.818Z,7.20
2019-02-06T15:42:58.742Z,7.70
2019-02-06T15:45:30.349Z,8.30
2019-02-06T15:48:04.559Z,8.63
2019-02-06T15:50:45.147Z,8.53
2019-02-06T15:53:16.745Z,8.10
2019-02-06T15:55:50.956Z,7.83
2019-02-06T15:58:34.710Z,7.27
2019-02-06T16:01:18.357Z,8.17
2019-02-06T16:04:24.456Z,7.87
2019-02-06T16:07:23.155Z,6.07
2019-02-06T16:10:16.161Z,6.57
2019-02-06T16:13:07.463Z,6.30
2019-02-06T16:16:09.807Z,5.90
2019-02-06T16:19:12.818Z,5.77
2019-02-06T16:21:53.286Z,5.33
2019-02-06T16:24:29.213Z,5.43
2019-02-06T16:27:06.965Z,5.97
2019-02-06T16:29:44.354Z,5.73
2019-02-06T16:32:31.158Z,6.80
2019-02-06T16:35:34.426Z,6.63
2019-02-06T16:38:26.531Z,6.27
2019-02-06T16:41:17.629Z,5.70
2019-02-06T16:44:04.486Z,6.40
2019-02-06T16:46:51.318Z,6.70
2019-02-06T16:49:39.238Z,6.37
2019-02-06T16:52:13.673Z,5.93
2019-02-06T16:55:12.169Z,6.20
2019-02-06T16:57:55.503Z,6.30
2019-02-06T17:00:36.162Z,6.90
2019-02-06T17:03:10.734Z,5.73
2019-02-06T17:05:58.786Z,7.10
2019-02-06T17:08:42.842Z,6.10
2019-02-06T17:11:20.070Z,6.77
2019-02-06T17:14:00.373Z,10.10
2019-02-06T17:16:34.931Z,8.00
2019-02-06T17:19:09.330Z,7.90
2019-02-06T17:21:57.008Z,8.03
2019-02-06T17:24:43.669Z,7.90
2019-02-06T17:27:23.946Z,9.30
2019-02-06T17:30:10.714Z,9.37
2019-02-06T17:32:54.062Z,7.60
2019-02-06T17:35:46.607Z,7.70
2019-02-06T17:38:21.490Z,9.13
2019-02-06T17:41:16.650Z,9.03
2019-02-06T17:44:04.631Z,9.13
2019-02-06T17:46:47.813Z,17.27
2019-02-06T17:49:25.392Z,16.50
2019-02-06T17:52:19.810Z,10.60
2019-02-06T17:55:15.462Z,7.80
2019-02-06T17:57:44.287Z,8.87
2019-02-06T18:00:21.906Z,8.30
2019-02-06T18:02:50.353Z,8.97
2019-02-06T18:05:18.822Z,10.23
2019-02-06T18:07:47.267Z,8.50
2019-02-06T18:10:19.795Z,9.30
2019-02-06T18:12:48.322Z,10.73
2019-02-06T18:15:16.878Z,11.73
2019-02-06T18:17:45.399Z,14.40
2019-02-06T18:20:19.706Z,12.93
2019-02-06T18:22:48.298Z,13.30
2019-02-06T18:25:17.193Z,12.00
2019-02-06T18:27:47.066Z,11.67
2019-02-06T18:30:26.790Z,12.43
2019-02-06T18:32:59.947Z,12.90
2019-02-06T18:35:28.713Z,13.23
2019-02-06T18:37:57.394Z,12.33
2019-02-06T18:40:26.791Z,10.33
2019-02-06T18:42:55.852Z,9.73
2019-02-06T18:45:27.751Z,9.90
2019-02-06T18:47:58.775Z,11.03
2019-02-06T18:50:36.177Z,9.83
2019-02-06T18:53:05.923Z,11.13
2019-02-06T18:55:34.923Z,10.53
2019-02-06T18:58:04.299Z,9.27
2019-02-06T19:00:35.465Z,9.37
2019-02-06T19:03:18.694Z,10.23
2019-02-06T19:05:47.376Z,9.33
2019-02-06T19:08:16.153Z,9.40
2019-02-06T19:10:44.898Z,9.40
2019-02-06T19:13:13.499Z,8.67
2019-02-06T19:15:42.192Z,9.03
2019-02-06T19:18:11.407Z,8.63
2019-02-06T19:20:39.931Z,9.70
2019-02-06T19:23:08.541Z,9.80
2019-02-06T19:25:37.409Z,8.60
2019-02-06T19:28:05.924Z,8.37
2019-02-06T19:30:40.542Z,9.73
2019-02-06T19:33:09.807Z,8.97
2019-02-06T19:35:38.346Z,9.00
2019-02-06T19:38:07.225Z,8.30
2019-02-06T19:40:35.890Z,8.87
2019-02-06T19:43:04.602Z,9.17
2019-02-06T19:45:33.127Z,9.77
2019-02-06T19:48:01.675Z,9.73
2019-02-06T19:50:36.418Z,8.63
2019-02-06T19:53:05.364Z,9.30
2019-02-06T19:55:33.993Z,9.50
2019-02-06T19:58:02.535Z,9.93
2019-02-06T20:00:33.278Z,9.90
2019-02-06T20:03:02.241Z,9.13
2019-02-06T20:05:30.926Z,8.53
2019-02-06T20:07:59.521Z,7.90
2019-02-06T20:10:39.921Z,8.67
2019-02-06T20:13:11.389Z,9.00
2019-02-06T20:15:38.748Z,7.47
2019-02-06T20:18:07.432Z,7.70
2019-02-06T20:20:36.094Z,8.60
2019-02-06T20:23:05.197Z,7.93
2019-02-06T20:25:33.865Z,7.77
2019-02-06T20:28:02.538Z,7.90
2019-02-06T20:30:32.890Z,7.87
2019-02-06T20:33:01.555Z,7.97
2019-02-06T20:35:30.149Z,7.13
2019-02-06T20:37:59.046Z,8.50
2019-02-06T20:40:33.062Z,8.50
2019-02-06T20:43:02.726Z,8.70
2019-02-06T20:45:31.791Z,8.10
2019-02-06T20:48:00.451Z,6.77
2019-02-06T20:50:33.826Z,8.43
2019-02-06T20:53:02.827Z,7.80
2019-02-06T20:55:31.790Z,7.87
2019-02-06T20:58:00.424Z,8.07
2019-02-06T21:00:34.301Z,7.50
2019-02-06T21:03:04.434Z,7.77
2019-02-06T21:05:33.111Z,7.30
2019-02-06T21:08:02.074Z,6.73
2019-02-06T21:10:32.354Z,7.20
2019-02-06T21:13:00.954Z,6.80
2019-02-06T21:15:29.727Z,6.90
2019-02-06T21:17:58.401Z,8.27
2019-02-06T21:20:27.085Z,7.33
2019-02-06T21:22:55.778Z,8.07
2019-02-06T21:25:25.569Z,8.27
2019-02-06T21:27:54.170Z,7.43
2019-02-06T21:30:39.874Z,7.73
2019-02-06T21:33:08.561Z,7.93
2019-02-06T21:35:37.163Z,7.40
2019-02-06T21:38:05.827Z,7.03
2019-02-06T21:40:36.207Z,6.43
2019-02-06T21:43:05.870Z,7.60
2019-02-06T21:45:34.578Z,6.60
2019-02-06T21:48:03.309Z,5.77
2019-02-06T21:50:31.812Z,4.93
2019-02-06T21:53:00.336Z,5.97
2019-02-06T21:55:28.850Z,6.30
2019-02-06T21:57:57.381Z,6.07
2019-02-06T22:00:34.231Z,5.63
2019-02-06T22:03:02.766Z,5.93
2019-02-06T22:05:31.586Z,6.30
2019-02-06T22:08:00.182Z,6.60
2019-02-06T22:10:28.720Z,6.87
2019-02-06T22:12:57.304Z,6.93
2019-02-06T22:15:30.428Z,7.30
2019-02-06T22:17:59.218Z,6.53
2019-02-06T22:20:28.291Z,6.93
2019-02-06T22:22:56.949Z,7.00
2019-02-06T22:25:25.625Z,6.00
2019-02-06T22:27:54.162Z,6.50
2019-02-06T22:30:28.058Z,6.57
2019-02-06T22:32:56.731Z,5.97
2019-02-06T22:35:25.699Z,6.20
2019-02-06T22:37:54.371Z,5.83
2019-02-06T22:40:24.637Z,5.80
2019-02-06T22:42:53.250Z,5.50
2019-02-06T22:45:24.282Z,5.60
2019-02-06T22:47:52.818Z,5.97
2019-02-06T22:50:23.588Z,5.60
2019-02-06T22:52:52.259Z,4.93
2019-02-06T22:55:21.029Z,5.30
2019-02-06T22:57:49.637Z,4.40
2019-02-06T23:00:28.257Z,4.30
2019-02-06T23:02:57.342Z,4.23
2019-02-06T23:05:25.953Z,4.30
2019-02-06T23:07:54.538Z,5.10
2019-02-06T23:10:23.002Z,4.47
2019-02-06T23:12:51.539Z,5.20
2019-02-06T23:15:20.141Z,5.10
2019-02-06T23:17:48.751Z,4.20
2019-02-06T23:20:17.414Z,5.40
2019-02-06T23:22:45.938Z,4.87
2019-02-06T23:25:14.526Z,5.00
2019-02-06T23:27:43.063Z,4.43
2019-02-06T23:30:14.608Z,4.63
2019-02-06T23:32:43.447Z,5.27
2019-02-06T23:35:12.045Z,5.10
2019-02-06T23:37:40.643Z,4.43
2019-02-06T23:40:16.691Z,4.63
2019-02-06T23:42:45.307Z,4.10
2019-02-06T23:45:13.966Z,5.90
2019-02-06T23:47:42.871Z,6.57
2019-02-06T23:50:13.635Z,5.40
2019-02-06T23:52:42.235Z,4.90
2019-02-06T23:55:11.000Z,4.43
2019-02-06T23:57:39.602Z,4.30
